createdAt,value
2018-01-12T00:00:29.826Z,12.10
2018-01-12T00:01:32.288Z,11.63
2018-01-12T00:02:34.748Z,11.63
2018-01-12T00:03:37.210Z,11.53
2018-01-12T00:04:39.680Z,8.20
2018-01-12T00:05:42.166Z,7.50
2018-01-12T00:06:44.640Z,7.63
2018-01-12T00:07:47.118Z,15.13
2018-01-12T00:08:49.588Z,6.97
2018-01-12T00:09:52.046Z,8.07
2018-01-12T00:10:54.521Z,10.50
2018-01-12T00:11:56.974Z,9.50
2018-01-12T00:12:59.444Z,8.10
2018-01-12T00:14:01.920Z,10.17
2018-01-12T00:15:04.402Z,8.07
2018-01-12T00:16:06.862Z,11.97
2018-01-12T00:17:09.336Z,10.87
2018-01-12T00:18:11.821Z,6.90
2018-01-12T00:19:14.282Z,15.40
2018-01-12T00:20:16.738Z,8.83
2018-01-12T00:21:19.216Z,7.37
2018-01-12T00:22:21.689Z,7.43
2018-01-12T00:23:24.160Z,5.27
2018-01-12T00:24:26.632Z,7.20
2018-01-12T00:25:29.109Z,11.77
2018-01-12T00:26:31.573Z,6.70
2018-01-12T00:27:34.049Z,6.60
2018-01-12T00:28:36.510Z,8.90
2018-01-12T00:29:38.984Z,13.13
2018-01-12T00:30:41.442Z,7.00
2018-01-12T00:31:43.914Z,8.70
2018-01-12T00:32:46.393Z,14.23
2018-01-12T00:33:48.870Z,9.87
2018-01-12T00:34:51.329Z,6.60
2018-01-12T00:35:53.823Z,8.40
2018-01-12T00:36:56.286Z,11.80
2018-01-12T00:37:58.764Z,5.80
2018-01-12T00:39:01.238Z,7.00
2018-01-12T00:40:03.705Z,10.43
2018-01-12T00:41:06.170Z,5.57
2018-01-12T00:42:08.641Z,6.60
2018-01-12T00:43:11.117Z,6.47
2018-01-12T00:44:13.578Z,7.50
2018-01-12T00:45:16.042Z,6.57
2018-01-12T00:46:18.524Z,14.27
2018-01-12T00:47:20.986Z,8.57
2018-01-12T00:48:23.456Z,5.80
2018-01-12T00:49:25.915Z,9.13
2018-01-12T00:50:28.379Z,10.83
2018-01-12T00:51:30.842Z,5.87
2018-01-12T00:52:33.321Z,6.47
2018-01-12T00:53:35.796Z,8.60
2018-01-12T00:54:38.250Z,6.43
2018-01-12T00:55:40.706Z,5.67
2018-01-12T00:56:43.162Z,6.10
2018-01-12T00:57:45.640Z,7.57
2018-01-12T00:58:48.098Z,12.53
2018-01-12T00:59:50.568Z,8.17
2018-01-12T01:00:53.030Z,9.00
2018-01-12T01:01:55.496Z,7.53
2018-01-12T01:02:57.964Z,7.40
2018-01-12T01:04:00.432Z,6.90
2018-01-12T01:05:02.913Z,6.80
2018-01-12T01:06:05.388Z,7.17
2018-01-12T01:07:07.850Z,7.40
2018-01-12T01:08:10.302Z,5.97
2018-01-12T01:09:12.757Z,5.90
2018-01-12T01:10:15.244Z,7.90
2018-01-12T01:11:17.697Z,12.23
2018-01-12T01:12:20.173Z,6.40
2018-01-12T01:13:22.644Z,5.33
2018-01-12T01:14:25.110Z,6.87
2018-01-12T01:15:27.586Z,6.10
2018-01-12T01:16:30.038Z,9.10
2018-01-12T01:17:32.499Z,6.90
2018-01-12T01:18:34.973Z,6.13
2018-01-12T01:19:37.443Z,5.73
2018-01-12T01:20:39.898Z,8.27
2018-01-12T01:21:42.358Z,7.37
2018-01-12T01:22:44.814Z,9.57
2018-01-12T01:23:47.288Z,5.87
2018-01-12T01:24:49.741Z,5.13
2018-01-12T01:25:52.206Z,10.17
2018-01-12T01:26:54.680Z,5.50
2018-01-12T01:27:57.138Z,8.00
2018-01-12T01:28:59.594Z,9.53
2018-01-12T01:30:02.068Z,6.13
2018-01-12T01:31:04.523Z,5.57
2018-01-12T01:32:06.990Z,6.87
2018-01-12T01:33:09.454Z,8.23
2018-01-12T01:34:11.921Z,9.53
2018-01-12T01:35:14.399Z,5.40
2018-01-12T01:36:16.868Z,5.57
2018-01-12T01:37:19.336Z,6.23
2018-01-12T01:38:21.817Z,10.20
2018-01-12T01:39:24.296Z,9.40
2018-01-12T01:40:26.755Z,8.60
2018-01-12T01:41:29.228Z,6.70
2018-01-12T01:42:31.689Z,7.77
2018-01-12T01:43:34.164Z,5.20
2018-01-12T01:44:36.628Z,5.40
2018-01-12T01:45:39.097Z,8.63
2018-01-12T01:46:41.554Z,5.47
2018-01-12T01:47:44.014Z,6.57
2018-01-12T01:48:46.474Z,7.17
2018-01-12T01:49:48.938Z,8.87
2018-01-12T01:50:51.398Z,6.57
2018-01-12T01:51:53.884Z,6.47
2018-01-12T01:52:56.342Z,6.57
2018-01-12T01:53:58.811Z,3.93
2018-01-12T01:55:01.266Z,5.40
2018-01-12T01:56:03.740Z,6.23
2018-01-12T01:57:06.207Z,9.03
2018-01-12T01:58:09.334Z,4.97
2018-01-12T01:59:11.808Z,8.63
2018-01-12T02:00:14.266Z,7.10
2018-01-12T02:01:16.744Z,7.73
2018-01-12T02:02:19.244Z,6.03
2018-01-12T02:03:21.698Z,4.40
2018-01-12T02:04:24.168Z,6.33
2018-01-12T02:05:26.622Z,8.20
2018-01-12T02:06:29.096Z,5.60
2018-01-12T02:07:31.568Z,5.80
2018-01-12T02:08:34.031Z,5.90
2018-01-12T02:09:36.494Z,5.30
2018-01-12T02:10:38.968Z,5.13
2018-01-12T02:11:41.426Z,5.40
2018-01-12T02:12:43.901Z,5.10
2018-01-12T02:13:46.374Z,6.23
2018-01-12T02:14:48.830Z,6.00
2018-01-12T02:15:51.306Z,4.47
2018-01-12T02:16:53.792Z,5.33
2018-01-12T02:17:56.260Z,5.10
2018-01-12T02:18:58.736Z,7.23
2018-01-12T02:20:01.194Z,7.07
2018-01-12T02:21:03.664Z,6.10
2018-01-12T02:22:06.191Z,6.67
2018-01-12T02:23:08.646Z,5.93
2018-01-12T02:24:11.126Z,4.30
2018-01-12T02:25:13.600Z,5.50
2018-01-12T02:26:16.060Z,14.47
2018-01-12T02:27:18.526Z,5.50
2018-01-12T02:28:21.001Z,4.70
2018-01-12T02:29:23.455Z,7.90
2018-01-12T02:30:25.924Z,7.73
2018-01-12T02:31:28.398Z,7.20
2018-01-12T02:32:30.858Z,6.93
2018-01-12T02:33:33.318Z,5.70
2018-01-12T02:34:35.784Z,4.13
2018-01-12T02:35:38.256Z,6.60
2018-01-12T02:36:40.748Z,10.30
2018-01-12T02:37:43.214Z,5.97
2018-01-12T02:38:45.696Z,6.67
2018-01-12T02:39:48.169Z,9.03
2018-01-12T02:40:50.648Z,22.67
2018-01-12T02:41:53.124Z,9.80
2018-01-12T02:42:55.586Z,8.03
2018-01-12T02:43:58.052Z,6.63
2018-01-12T02:45:00.501Z,5.33
2018-01-12T02:46:02.955Z,5.90
2018-01-12T02:47:05.414Z,7.23
2018-01-12T02:48:07.897Z,10.03
2018-01-12T02:49:10.367Z,5.90
2018-01-12T02:50:12.840Z,9.57
2018-01-12T02:51:15.301Z,8.30
2018-01-12T02:52:17.754Z,4.33
2018-01-12T02:53:20.209Z,8.23
2018-01-12T02:54:22.680Z,4.40
2018-01-12T02:55:25.139Z,4.80
2018-01-12T02:56:27.616Z,5.33
2018-01-12T02:57:30.071Z,7.80
2018-01-12T02:58:32.548Z,6.23
2018-01-12T02:59:35.006Z,9.30
2018-01-12T03:00:37.476Z,5.83
2018-01-12T03:01:39.948Z,8.10
2018-01-12T03:02:42.411Z,5.37
2018-01-12T03:03:44.869Z,5.77
2018-01-12T03:04:47.322Z,6.60
2018-01-12T03:05:49.778Z,8.63
2018-01-12T03:06:52.234Z,4.17
2018-01-12T03:07:54.694Z,4.90
2018-01-12T03:08:57.172Z,5.63
2018-01-12T03:09:59.647Z,6.43
2018-01-12T03:11:02.124Z,6.60
2018-01-12T03:12:04.592Z,5.87
2018-01-12T03:13:07.045Z,6.77
2018-01-12T03:14:09.517Z,4.50
2018-01-12T03:15:11.994Z,5.83
2018-01-12T03:16:14.450Z,5.33
2018-01-12T03:17:16.920Z,5.70
2018-01-12T03:18:19.394Z,7.53
2018-01-12T03:19:21.864Z,4.20
2018-01-12T03:20:24.349Z,4.67
2018-01-12T03:21:26.814Z,3.40
2018-01-12T03:22:29.278Z,7.63
2018-01-12T03:23:31.734Z,4.10
2018-01-12T03:24:34.210Z,13.00
2018-01-12T03:25:36.684Z,4.33
2018-01-12T03:26:39.340Z,5.00
2018-01-12T03:27:41.816Z,7.57
2018-01-12T03:28:44.292Z,5.37
2018-01-12T03:29:46.750Z,8.00
2018-01-12T03:30:49.226Z,5.20
2018-01-12T03:31:51.704Z,4.90
2018-01-12T03:32:54.176Z,5.00
2018-01-12T03:33:56.650Z,8.60
2018-01-12T03:34:59.106Z,4.77
2018-01-12T03:36:01.571Z,3.30
2018-01-12T03:37:04.044Z,4.87
2018-01-12T03:38:06.512Z,4.50
2018-01-12T03:39:08.965Z,7.97
2018-01-12T03:40:11.507Z,5.90
2018-01-12T03:41:13.984Z,5.80
2018-01-12T03:42:16.461Z,5.70
2018-01-12T03:43:18.918Z,6.50
2018-01-12T03:44:21.374Z,6.47
2018-01-12T03:45:23.828Z,6.67
2018-01-12T03:46:26.285Z,5.10
2018-01-12T03:47:28.746Z,6.00
2018-01-12T03:48:31.215Z,6.03
2018-01-12T03:49:33.675Z,7.37
2018-01-12T03:50:36.134Z,7.63
2018-01-12T03:51:38.610Z,4.30
2018-01-12T03:52:41.067Z,7.50
2018-01-12T03:53:43.540Z,5.60
2018-01-12T03:54:45.993Z,4.30
2018-01-12T03:55:48.453Z,6.43
2018-01-12T03:56:50.923Z,6.17
2018-01-12T03:57:53.402Z,8.67
2018-01-12T03:58:55.884Z,5.10
2018-01-12T03:59:58.342Z,5.03
2018-01-12T04:01:00.804Z,5.97
2018-01-12T04:02:03.276Z,5.67
2018-01-12T04:03:05.744Z,5.73
2018-01-12T04:04:08.197Z,5.30
2018-01-12T04:05:10.654Z,5.33
2018-01-12T04:06:13.128Z,6.97
2018-01-12T04:07:15.614Z,5.50
2018-01-12T04:08:18.074Z,5.73
2018-01-12T04:09:20.532Z,3.60
2018-01-12T04:10:23.009Z,5.00
2018-01-12T04:11:25.466Z,6.20
2018-01-12T04:12:27.918Z,4.00
2018-01-12T04:13:30.391Z,5.60
2018-01-12T04:14:32.860Z,7.53
2018-01-12T04:15:35.332Z,4.33
2018-01-12T04:16:37.936Z,6.50
2018-01-12T04:17:40.394Z,7.40
2018-01-12T04:18:42.873Z,5.23
2018-01-12T04:19:45.344Z,3.30
2018-01-12T04:20:47.799Z,4.80
2018-01-12T04:21:50.254Z,6.00
2018-01-12T04:22:52.714Z,6.30
2018-01-12T04:23:55.183Z,7.90
2018-01-12T04:24:57.633Z,4.50
2018-01-12T04:26:00.104Z,6.47
2018-01-12T04:27:02.571Z,3.87
2018-01-12T04:28:05.030Z,4.00
2018-01-12T04:29:07.504Z,4.00
2018-01-12T04:30:09.962Z,4.50
2018-01-12T04:31:12.432Z,7.07
2018-01-12T04:32:14.908Z,6.77
2018-01-12T04:33:17.370Z,3.67
2018-01-12T04:34:19.843Z,5.30
2018-01-12T04:35:22.297Z,4.27
2018-01-12T04:36:24.768Z,3.13
2018-01-12T04:37:27.226Z,6.00
2018-01-12T04:38:29.701Z,4.00
2018-01-12T04:39:32.157Z,6.27
2018-01-12T04:40:34.623Z,9.27
2018-01-12T04:41:37.100Z,4.70
2018-01-12T04:42:39.557Z,5.73
2018-01-12T04:43:42.014Z,4.60
2018-01-12T04:44:44.484Z,5.07
2018-01-12T04:45:46.958Z,2.97
2018-01-12T04:46:49.421Z,4.20
2018-01-12T04:47:51.888Z,3.90
2018-01-12T04:48:54.368Z,3.70
2018-01-12T04:49:56.848Z,5.03
2018-01-12T04:50:59.305Z,3.53
2018-01-12T04:52:01.765Z,4.70
2018-01-12T04:53:04.234Z,5.37
2018-01-12T04:54:06.704Z,3.50
2018-01-12T04:55:09.166Z,4.93
2018-01-12T04:56:11.626Z,3.77
2018-01-12T04:57:14.083Z,5.80
2018-01-12T04:58:16.547Z,5.40
2018-01-12T04:59:19.021Z,3.87
2018-01-12T05:00:21.481Z,6.93
2018-01-12T05:01:23.952Z,5.23
2018-01-12T05:02:26.426Z,3.43
2018-01-12T05:03:28.901Z,6.00
2018-01-12T05:04:31.358Z,5.23
2018-01-12T05:05:33.814Z,4.03
2018-01-12T05:06:36.291Z,4.20
2018-01-12T05:07:38.760Z,4.40
2018-01-12T05:08:41.232Z,4.87
2018-01-12T05:09:43.707Z,3.00
2018-01-12T05:10:46.176Z,3.27
2018-01-12T05:11:48.653Z,5.33
2018-01-12T05:12:51.105Z,3.37
2018-01-12T05:13:53.576Z,6.70
2018-01-12T05:14:56.035Z,3.53
2018-01-12T05:15:58.490Z,4.03
2018-01-12T05:17:00.947Z,3.07
2018-01-12T05:18:03.428Z,5.70
2018-01-12T05:19:05.907Z,4.20
2018-01-12T05:20:08.363Z,5.40
2018-01-12T05:21:10.836Z,7.00
2018-01-12T05:22:13.308Z,6.33
2018-01-12T05:23:15.782Z,21.27
2018-01-12T05:24:18.378Z,5.20
2018-01-12T05:25:20.852Z,4.37
2018-01-12T05:26:23.336Z,5.37
2018-01-12T05:27:25.806Z,5.60
2018-01-12T05:28:28.288Z,8.40
2018-01-12T05:29:30.768Z,6.80
2018-01-12T05:30:33.224Z,6.50
2018-01-12T05:31:35.677Z,5.13
2018-01-12T05:32:38.160Z,5.97
2018-01-12T05:33:40.653Z,7.67
2018-01-12T05:34:43.090Z,9.83
2018-01-12T05:35:45.550Z,8.20
2018-01-12T05:36:48.024Z,12.47
2018-01-12T05:37:50.654Z,11.33
2018-01-12T05:38:53.124Z,16.23
2018-01-12T05:39:55.585Z,9.50
2018-01-12T05:40:58.069Z,12.30
2018-01-12T05:42:00.540Z,24.07
2018-01-12T05:43:02.998Z,13.30
2018-01-12T05:44:05.472Z,12.30
2018-01-12T05:45:07.934Z,15.77
2018-01-12T05:46:10.404Z,10.17
2018-01-12T05:47:12.884Z,14.83
2018-01-12T05:48:15.345Z,7.03
2018-01-12T05:49:17.820Z,16.23
2018-01-12T05:50:20.293Z,12.77
2018-01-12T05:51:22.762Z,11.77
2018-01-12T05:52:25.218Z,11.53
2018-01-12T05:53:27.692Z,17.30
2018-01-12T05:54:30.167Z,11.20
2018-01-12T05:55:32.640Z,18.60
2018-01-12T05:56:35.117Z,13.17
2018-01-12T05:57:37.582Z,16.20
2018-01-12T05:58:40.042Z,14.87
2018-01-12T05:59:42.497Z,11.87
2018-01-12T06:00:57.055Z,18.20
2018-01-12T06:02:11.344Z,13.70
2018-01-12T06:03:25.660Z,11.27
2018-01-12T06:04:39.986Z,10.13
2018-01-12T06:05:54.302Z,23.43
2018-01-12T06:06:56.830Z,23.07
2018-01-12T06:07:59.303Z,17.33
2018-01-12T06:09:01.777Z,13.23
2018-01-12T06:10:04.252Z,17.27
2018-01-12T06:11:06.719Z,22.37
2018-01-12T06:12:09.196Z,23.50
2018-01-12T06:13:12.108Z,19.23
2018-01-12T06:14:14.621Z,20.80
2018-01-12T06:15:17.100Z,37.10
2018-01-12T06:16:19.574Z,27.13
2018-01-12T06:17:22.046Z,26.40
2018-01-12T06:18:24.528Z,26.47
2018-01-12T06:19:27.008Z,28.17
2018-01-12T06:20:29.474Z,30.50
2018-01-12T06:21:31.946Z,32.40
2018-01-12T06:22:34.423Z,32.30
2018-01-12T06:23:36.908Z,33.03
2018-01-12T06:24:39.379Z,33.00
2018-01-12T06:25:41.850Z,35.43
2018-01-12T06:26:44.309Z,35.50
2018-01-12T06:27:46.794Z,33.70
2018-01-12T06:28:49.262Z,30.40
2018-01-12T06:29:51.745Z,31.63
2018-01-12T06:30:54.206Z,39.17
2018-01-12T06:31:56.678Z,40.23
2018-01-12T06:32:59.155Z,35.33
2018-01-12T06:34:01.653Z,42.30
2018-01-12T06:35:04.136Z,32.73
2018-01-12T06:36:06.649Z,46.33
2018-01-12T06:37:09.128Z,35.63
2018-01-12T06:38:11.595Z,33.93
2018-01-12T06:39:14.076Z,36.50
2018-01-12T06:40:16.546Z,44.87
2018-01-12T06:41:19.015Z,42.87
2018-01-12T06:42:21.488Z,37.90
2018-01-12T06:43:23.954Z,39.23
2018-01-12T06:44:26.454Z,38.50
2018-01-12T06:45:28.914Z,40.97
2018-01-12T06:46:31.391Z,40.92
2018-01-12T06:47:33.869Z,39.77
2018-01-12T06:48:36.399Z,42.00
2018-01-12T06:49:38.893Z,38.35
2018-01-12T06:50:41.379Z,42.13
2018-01-12T06:51:43.870Z,42.27
2018-01-12T06:52:46.354Z,43.27
2018-01-12T06:53:48.832Z,47.20
2018-01-12T06:54:51.327Z,45.20
2018-01-12T06:55:53.827Z,41.75
2018-01-12T06:56:56.311Z,47.73
2018-01-12T06:57:58.792Z,43.03
2018-01-12T06:59:01.258Z,47.77
2018-01-12T07:00:03.740Z,51.30
2018-01-12T07:01:06.206Z,51.33
2018-01-12T07:02:08.686Z,45.37
2018-01-12T07:03:11.150Z,49.73
2018-01-12T07:04:13.642Z,50.40
2018-01-12T07:05:16.218Z,41.50
2018-01-12T07:06:18.683Z,36.43
2018-01-12T07:07:21.174Z,39.80
2018-01-12T07:08:23.642Z,41.83
2018-01-12T07:09:26.106Z,35.43
2018-01-12T07:10:28.570Z,34.70
2018-01-12T07:11:31.029Z,35.93
2018-01-12T07:12:33.494Z,42.13
2018-01-12T07:13:35.954Z,36.27
2018-01-12T07:14:38.526Z,30.43
2018-01-12T07:15:41.004Z,39.63
2018-01-12T07:16:43.484Z,33.80
2018-01-12T07:17:45.975Z,32.50
2018-01-12T07:18:48.442Z,29.93
2018-01-12T07:19:50.925Z,37.60
2018-01-12T07:21:05.299Z,31.40
2018-01-12T07:22:19.430Z,27.53
2018-01-12T07:23:33.664Z,27.03
2018-01-12T07:24:36.127Z,38.10
2018-01-12T07:25:38.628Z,29.10
2018-01-12T07:26:41.104Z,27.40
2018-01-12T07:27:43.649Z,26.80
2018-01-12T07:28:46.122Z,23.97
2018-01-12T07:29:48.638Z,32.73
2018-01-12T07:30:51.102Z,26.23
2018-01-12T07:31:53.574Z,23.30
2018-01-12T07:32:56.056Z,29.03
2018-01-12T07:33:58.553Z,26.67
2018-01-12T07:35:01.022Z,39.60
2018-01-12T07:36:03.491Z,19.90
2018-01-12T07:37:05.978Z,22.50
2018-01-12T07:38:08.464Z,23.23
2018-01-12T07:39:10.926Z,20.90
2018-01-12T07:40:13.404Z,22.60
2018-01-12T07:41:15.902Z,25.30
2018-01-12T07:42:18.385Z,19.43
2018-01-12T07:43:20.854Z,25.13
2018-01-12T07:44:23.318Z,18.40
2018-01-12T07:45:25.797Z,23.73
2018-01-12T07:46:28.266Z,21.60
2018-01-12T07:47:30.735Z,23.03
2018-01-12T07:48:33.217Z,25.17
2018-01-12T07:49:36.184Z,20.80
2018-01-12T07:50:38.973Z,18.80
2018-01-12T07:51:41.460Z,15.33
2018-01-12T07:52:49.406Z,21.43
2018-01-12T07:53:51.887Z,23.60
2018-01-12T07:54:54.373Z,18.33
2018-01-12T07:55:56.841Z,21.47
2018-01-12T07:56:59.305Z,19.80
2018-01-12T07:58:01.781Z,20.63
2018-01-12T07:59:04.256Z,16.03
2018-01-12T08:00:06.727Z,25.13
2018-01-12T08:01:14.834Z,16.80
2018-01-12T08:02:22.979Z,18.20
2018-01-12T08:03:25.452Z,18.00
2018-01-12T08:04:27.924Z,21.50
2018-01-12T08:05:30.387Z,19.20
2018-01-12T08:06:32.852Z,13.87
2018-01-12T08:07:35.373Z,17.87
2018-01-12T08:08:37.852Z,16.90
2018-01-12T08:09:40.321Z,16.83
2018-01-12T08:10:42.816Z,24.20
2018-01-12T08:11:45.287Z,18.07
2018-01-12T08:12:47.763Z,22.70
2018-01-12T08:13:50.239Z,19.97
2018-01-12T08:14:52.709Z,18.10
2018-01-12T08:15:55.166Z,18.03
2018-01-12T08:16:57.688Z,14.47
2018-01-12T08:18:00.150Z,17.67
2018-01-12T08:19:02.614Z,14.00
2018-01-12T08:20:05.092Z,15.53
2018-01-12T08:21:07.572Z,17.73
2018-01-12T08:22:10.030Z,17.43
2018-01-12T08:23:12.503Z,20.00
2018-01-12T08:24:15.000Z,14.77
2018-01-12T08:25:17.466Z,14.50
2018-01-12T08:26:19.939Z,11.63
2018-01-12T08:27:22.422Z,14.97
2018-01-12T08:28:24.900Z,16.57
2018-01-12T08:29:27.407Z,15.23
2018-01-12T08:30:29.866Z,13.03
2018-01-12T08:31:32.347Z,15.00
2018-01-12T08:32:34.821Z,16.13
2018-01-12T08:33:37.290Z,14.97
2018-01-12T08:34:39.768Z,15.60
2018-01-12T08:35:42.229Z,18.30
2018-01-12T08:36:44.690Z,12.93
2018-01-12T08:37:47.173Z,13.00
2018-01-12T08:38:49.648Z,15.70
2018-01-12T08:39:52.112Z,16.27
2018-01-12T08:40:54.575Z,11.87
2018-01-12T08:41:57.054Z,15.53
2018-01-12T08:42:59.520Z,10.53
2018-01-12T08:44:01.988Z,17.20
2018-01-12T08:45:04.469Z,13.73
2018-01-12T08:46:06.932Z,13.87
2018-01-12T08:47:09.390Z,11.77
2018-01-12T08:48:11.857Z,10.60
2018-01-12T08:49:14.314Z,10.77
2018-01-12T08:50:16.803Z,17.10
2018-01-12T08:51:19.268Z,23.30
2018-01-12T08:52:21.729Z,16.73
2018-01-12T08:53:24.221Z,14.30
2018-01-12T08:54:26.681Z,12.50
2018-01-12T08:55:29.180Z,13.50
2018-01-12T08:56:31.641Z,15.60
2018-01-12T08:57:34.097Z,12.50
2018-01-12T08:58:36.561Z,14.67
2018-01-12T08:59:39.014Z,9.97
2018-01-12T09:00:41.488Z,14.83
2018-01-12T09:01:43.954Z,15.17
2018-01-12T09:02:46.423Z,12.00
2018-01-12T09:03:48.924Z,13.60
2018-01-12T09:04:51.395Z,10.73
2018-01-12T09:05:53.864Z,9.03
2018-01-12T09:06:56.322Z,13.53
2018-01-12T09:07:58.777Z,14.57
2018-01-12T09:09:01.252Z,14.27
2018-01-12T09:10:03.718Z,12.00
2018-01-12T09:11:06.196Z,11.10
2018-01-12T09:12:08.660Z,14.53
2018-01-12T09:13:22.904Z,13.73
2018-01-12T09:14:37.230Z,16.10
2018-01-12T09:15:39.689Z,13.17
2018-01-12T09:16:51.218Z,13.73
2018-01-12T09:17:53.685Z,15.43
2018-01-12T09:19:08.018Z,11.00
2018-01-12T09:20:17.273Z,13.93
2018-01-12T09:21:25.110Z,11.57
2018-01-12T09:22:28.667Z,12.50
2018-01-12T09:23:31.163Z,11.20
2018-01-12T09:24:33.690Z,15.40
2018-01-12T09:25:36.826Z,14.40
2018-01-12T09:26:39.278Z,9.40
2018-01-12T09:27:41.738Z,9.77
2018-01-12T09:28:44.218Z,12.57
2018-01-12T09:29:46.692Z,11.23
2018-01-12T09:30:49.146Z,10.47
2018-01-12T09:31:51.619Z,11.47
2018-01-12T09:32:54.180Z,12.23
2018-01-12T09:33:56.701Z,13.60
2018-01-12T09:34:59.995Z,9.53
2018-01-12T09:36:02.478Z,10.50
2018-01-12T09:37:04.937Z,9.43
2018-01-12T09:38:19.242Z,12.97
2018-01-12T09:39:47.541Z,9.70
2018-01-12T09:40:50.006Z,9.67
2018-01-12T09:41:52.525Z,9.87
2018-01-12T09:42:54.991Z,9.20
2018-01-12T09:43:57.474Z,8.80
2018-01-12T09:44:59.946Z,12.23
2018-01-12T09:46:02.416Z,9.37
2018-01-12T09:47:16.818Z,9.10
2018-01-12T09:48:38.009Z,11.50
2018-01-12T09:49:47.123Z,9.43
2018-01-12T09:50:49.591Z,9.63
2018-01-12T09:51:52.093Z,13.83
2018-01-12T09:52:54.551Z,9.47
2018-01-12T09:53:57.036Z,11.57
2018-01-12T09:54:59.514Z,9.90
2018-01-12T09:56:01.987Z,13.00
2018-01-12T09:57:04.472Z,10.60
2018-01-12T09:58:06.981Z,11.17
2018-01-12T09:59:09.480Z,11.27
2018-01-12T10:01:43.570Z,15.47
2018-01-12T10:02:46.047Z,16.33
2018-01-12T10:03:48.531Z,12.00
2018-01-12T10:04:51.010Z,14.20
2018-01-12T10:05:53.467Z,14.20
2018-01-12T10:06:55.941Z,13.70
2018-01-12T10:08:16.961Z,15.20
2018-01-12T10:09:25.243Z,19.17
2018-01-12T10:10:27.735Z,24.37
2018-01-12T10:11:30.221Z,27.20
2018-01-12T10:12:32.728Z,29.13
2018-01-12T10:13:35.194Z,36.40
2018-01-12T10:14:37.658Z,32.50
2018-01-12T10:15:40.145Z,31.63
2018-01-12T10:16:42.712Z,40.90
2018-01-12T10:17:45.177Z,36.83
2018-01-12T10:18:53.468Z,29.53
2018-01-12T10:21:40.712Z,33.00
2018-01-12T10:22:43.187Z,34.80
2018-01-12T10:23:45.693Z,43.20
2018-01-12T10:24:48.157Z,41.83
2018-01-12T10:25:50.642Z,42.93
2018-01-12T10:26:53.165Z,41.00
2018-01-12T10:27:55.639Z,40.70
2018-01-12T10:29:07.091Z,51.00
2018-01-12T10:31:51.632Z,49.20
2018-01-12T10:33:00.911Z,37.90
2018-01-12T10:34:08.353Z,43.50
2018-01-12T10:35:19.467Z,46.53
2018-01-12T10:36:21.926Z,48.97
2018-01-12T10:37:24.390Z,40.87
2018-01-12T10:38:26.869Z,43.83
2018-01-12T10:39:29.348Z,43.67
2018-01-12T10:42:19.374Z,40.60
2018-01-12T10:43:21.838Z,39.23
2018-01-12T10:44:24.301Z,37.57
2018-01-12T10:45:26.777Z,45.57
2018-01-12T10:46:41.037Z,44.00
2018-01-12T10:47:53.219Z,51.10
2018-01-12T10:48:56.612Z,48.70
2018-01-12T10:51:37.085Z,39.60
2018-01-12T10:52:39.564Z,52.53
2018-01-12T10:53:42.054Z,47.07
2018-01-12T10:54:44.515Z,45.57
2018-01-12T10:55:46.996Z,47.93
2018-01-12T10:56:49.471Z,49.67
2018-01-12T10:57:51.955Z,51.90
2018-01-12T10:58:54.482Z,44.37
2018-01-12T10:59:57.028Z,45.20
2018-01-12T11:00:59.590Z,45.57
2018-01-12T11:02:02.085Z,48.60
2018-01-12T11:03:04.550Z,52.17
2018-01-12T11:04:07.048Z,43.70
2018-01-12T11:05:09.514Z,48.10
2018-01-12T11:06:11.995Z,50.07
2018-01-12T11:07:14.470Z,48.93
2018-01-12T11:08:16.948Z,57.23
2018-01-12T11:09:19.458Z,50.10
2018-01-12T11:10:21.937Z,53.50
2018-01-12T11:11:24.680Z,54.03
2018-01-12T11:12:27.172Z,51.60
2018-01-12T11:13:29.630Z,54.57
2018-01-12T11:14:32.114Z,56.10
2018-01-12T11:15:34.611Z,56.70
2018-01-12T11:16:37.096Z,55.23
2018-01-12T11:17:39.561Z,56.97
2018-01-12T11:18:42.044Z,56.53
2018-01-12T11:19:44.548Z,52.53
2018-01-12T11:20:47.028Z,52.70
2018-01-12T11:21:49.503Z,50.43
2018-01-12T11:22:51.985Z,53.10
2018-01-12T11:23:54.454Z,60.90
2018-01-12T11:24:56.960Z,54.60
2018-01-12T11:25:59.422Z,56.80
2018-01-12T11:27:02.020Z,50.97
2018-01-12T11:28:04.496Z,56.17
2018-01-12T11:29:06.958Z,53.80
2018-01-12T11:30:09.531Z,53.67
2018-01-12T11:31:12.014Z,50.93
2018-01-12T11:32:14.482Z,51.47
2018-01-12T11:33:16.960Z,76.03
2018-01-12T11:34:19.426Z,59.57
2018-01-12T11:35:21.945Z,52.30
2018-01-12T11:36:24.429Z,68.53
2018-01-12T11:37:26.935Z,59.23
2018-01-12T11:38:29.432Z,61.40
2018-01-12T11:39:31.916Z,100.03
2018-01-12T11:40:34.418Z,82.50
2018-01-12T11:41:36.896Z,73.80
2018-01-12T11:42:39.372Z,82.97
2018-01-12T11:43:41.838Z,80.50
2018-01-12T11:44:44.302Z,79.70
2018-01-12T11:45:46.797Z,74.67
2018-01-12T11:46:49.302Z,80.10
2018-01-12T11:47:51.779Z,95.67
2018-01-12T11:48:54.256Z,77.00
2018-01-12T11:49:56.740Z,73.43
2018-01-12T11:50:59.231Z,69.30
2018-01-12T11:52:01.723Z,75.27
2018-01-12T11:53:04.213Z,64.97
2018-01-12T11:54:06.681Z,73.23
2018-01-12T11:55:09.168Z,65.13
2018-01-12T11:56:11.650Z,76.90
2018-01-12T11:57:14.150Z,57.80
2018-01-12T11:58:16.659Z,66.93
2018-01-12T11:59:19.107Z,66.97
2018-01-12T12:00:21.589Z,66.97
2018-01-12T12:01:24.074Z,58.80
2018-01-12T12:02:26.544Z,57.13
2018-01-12T12:03:29.036Z,61.37
2018-01-12T12:04:31.510Z,60.30
2018-01-12T12:05:33.990Z,55.87
2018-01-12T12:06:36.507Z,65.73
2018-01-12T12:07:38.989Z,54.13
2018-01-12T12:08:41.464Z,68.33
2018-01-12T12:09:43.938Z,57.77
2018-01-12T12:10:46.402Z,54.13
2018-01-12T12:11:48.890Z,60.23
2018-01-12T12:12:51.359Z,59.10
2018-01-12T12:13:53.852Z,56.03
2018-01-12T12:14:56.348Z,52.50
2018-01-12T12:15:58.832Z,54.43
2018-01-12T12:17:01.324Z,64.23
2018-01-12T12:18:03.789Z,58.00
2018-01-12T12:19:06.245Z,59.93
2018-01-12T12:20:08.709Z,51.47
2018-01-12T12:21:11.184Z,53.17
2018-01-12T12:22:13.679Z,52.27
2018-01-12T12:23:16.156Z,57.00
2018-01-12T12:24:18.617Z,48.37
2018-01-12T12:25:21.091Z,52.47
2018-01-12T12:26:23.566Z,51.83
2018-01-12T12:27:26.064Z,54.83
2018-01-12T12:28:28.548Z,51.87
2018-01-12T12:29:31.040Z,49.43
2018-01-12T12:30:33.505Z,47.87
2018-01-12T12:31:35.980Z,49.83
2018-01-12T12:32:38.465Z,52.83
2018-01-12T12:33:40.924Z,51.40
2018-01-12T12:34:43.403Z,47.37
2018-01-12T12:35:45.900Z,55.77
2018-01-12T12:36:48.378Z,46.87
2018-01-12T12:37:50.881Z,47.83
2018-01-12T12:38:53.346Z,49.30
2018-01-12T12:39:56.118Z,49.03
2018-01-12T12:40:58.586Z,47.03
2018-01-12T12:42:01.046Z,51.50
2018-01-12T12:43:03.533Z,50.20
2018-01-12T12:44:06.078Z,47.00
2018-01-12T12:45:08.593Z,50.60
2018-01-12T12:46:11.058Z,48.40
2018-01-12T12:47:13.634Z,47.97
2018-01-12T12:48:16.132Z,41.40
2018-01-12T12:49:18.609Z,47.90
2018-01-12T12:50:21.068Z,44.53
2018-01-12T12:51:23.545Z,39.70
2018-01-12T12:52:26.024Z,44.53
2018-01-12T12:53:28.508Z,48.20
2018-01-12T12:54:30.969Z,42.43
2018-01-12T12:55:33.472Z,41.93
2018-01-12T12:56:36.176Z,43.17
2018-01-12T12:57:38.637Z,47.17
2018-01-12T12:58:41.147Z,39.00
2018-01-12T12:59:43.624Z,38.40
2018-01-12T13:00:46.108Z,42.23
2018-01-12T13:01:48.579Z,53.70
2018-01-12T13:02:51.046Z,58.67
2018-01-12T13:03:53.538Z,44.10
2018-01-12T13:04:56.001Z,50.57
2018-01-12T13:05:58.474Z,42.90
2018-01-12T13:07:00.952Z,41.90
2018-01-12T13:08:03.460Z,50.23
2018-01-12T13:09:05.948Z,46.07
2018-01-12T13:10:08.416Z,41.13
2018-01-12T13:11:10.946Z,57.07
2018-01-12T13:12:13.424Z,44.63
2018-01-12T13:13:15.951Z,76.20
2018-01-12T13:14:18.442Z,43.60
2018-01-12T13:15:20.922Z,44.83
2018-01-12T13:16:23.408Z,46.07
2018-01-12T13:17:25.874Z,42.77
2018-01-12T13:18:28.370Z,46.80
2018-01-12T13:19:30.860Z,45.87
2018-01-12T13:20:33.344Z,50.83
2018-01-12T13:21:35.984Z,51.83
2018-01-12T13:22:38.455Z,39.70
2018-01-12T13:23:40.996Z,41.60
2018-01-12T13:24:43.495Z,45.63
2018-01-12T13:25:45.967Z,47.67
2018-01-12T13:26:48.445Z,43.90
2018-01-12T13:27:50.918Z,46.70
2018-01-12T13:28:53.390Z,40.57
2018-01-12T13:29:56.017Z,40.17
2018-01-12T13:30:58.495Z,44.53
2018-01-12T13:32:00.972Z,39.17
2018-01-12T13:33:03.445Z,44.13
2018-01-12T13:34:05.924Z,43.63
2018-01-12T13:35:08.420Z,40.70
2018-01-12T13:36:11.467Z,39.20
2018-01-12T13:37:13.930Z,45.50
2018-01-12T13:38:16.398Z,45.57
2018-01-12T13:39:18.862Z,35.10
2018-01-12T13:40:21.350Z,35.63
2018-01-12T13:41:23.822Z,36.00
2018-01-12T13:42:26.318Z,43.17
2018-01-12T13:43:28.830Z,43.57
2018-01-12T13:44:31.308Z,39.87
2018-01-12T13:45:33.802Z,48.17
2018-01-12T13:46:36.352Z,42.60
2018-01-12T13:47:38.834Z,39.70
2018-01-12T13:48:41.313Z,36.10